Terminal Aerodrome Forecast
Issued by NWS Charleston, SC

Home | Current Version | Previous Version | Text Only | Print | Product List | Glossary On
Versions: 1 2 3 4 5 6 7 8 9 10 11 12 13 14 15 16 17
000
FTUS42 KCHS 021950 AAA
TAFSAV
TAF AMD
KSAV 021950Z 0220/0318 16007KT P6SM TS SCT030CB BKN060
      TEMPO 0220/0222 VRB15KT 1SM TSRA BKN020CB
     FM030000 VRB03KT P6SM BKN040
     FM030400 VRB03KT P6SM VCSH SCT020
     FM031400 15009KT P6SM FEW020 SCT040=

USA.gov is the U.S. government's official web portal to all federal, state and local government web resources and services.